Time;durP1;ratioP1;P1;durP2;ratioP2;P2;SDS_P1;SDS_P2;PMS_P1;PMS_P2;Temp;Humidity;BMP_temperature;BMP_pressure;BME280_temperature;BME280_humidity;BME280_pressure;Samples;Min_cycle;Max_cycle;Signal;HPM_P1;HPM_P2
2022/01/27 00:03:50;;;;;;;3.40;1.73;;;;;;;;;;6276940;28;20531;-78
2022/01/27 00:07:03;;;;;;;7.63;1.43;;;;;;;;;;6307124;28;20243;-79
2022/01/27 00:10:27;;;;;;;2.20;1.37;;;;;;;;;;6292885;28;20210;-78
2022/01/27 00:13:44;;;;;;;2.33;1.10;;;;;;;;;;6277592;28;20240;-79
2022/01/27 00:16:59;;;;;;;1.97;1.43;;;;;;;;;;6321865;28;20293;-79
2022/01/27 00:20:12;;;;;;;4.43;1.50;;;;;;;;;;6288699;28;20228;-79
2022/01/27 00:23:22;;;;;;;2.73;1.47;;;;;;;;;;6322306;28;20459;-80
2022/01/27 00:26:37;;;;;;;1.50;1.50;;;;;;;;;;6312561;28;20227;-79
2022/01/27 00:29:47;;;;;;;8.27;1.60;;;;;;;;;;6274531;28;20240;-79
2022/01/27 00:33:03;;;;;;;10.63;1.40;;;;;;;;;;6287813;28;20324;-79
2022/01/27 00:36:24;;;;;;;5.17;1.60;;;;;;;;;;6280752;28;20248;-78
2022/01/27 00:39:37;;;;;;;2.47;1.40;;;;;;;;;;6260954;28;20229;-79
2022/01/27 00:42:45;;;;;;;5.37;1.40;;;;;;;;;;6209262;28;20311;-78
2022/01/27 00:46:00;;;;;;;1.73;1.43;;;;;;;;;;6253619;28;20211;-78
2022/01/27 00:49:14;;;;;;;2.80;1.43;;;;;;;;;;6253191;28;20251;-79
2022/01/27 00:52:31;;;;;;;2.37;1.40;;;;;;;;;;6258607;28;20296;-79
2022/01/27 00:55:48;;;;;;;11.07;1.50;;;;;;;;;;6275782;28;20207;-80
2022/01/27 00:59:33;;;;;;;2.20;1.60;;;;;;;;;;6244896;28;20238;-79
2022/01/27 01:02:51;;;;;;;12.20;2.30;;;;;;;;;;6211522;28;20262;-80
2022/01/27 01:06:22;;;;;;;6.13;1.50;;;;;;;;;;6278164;28;20215;-78
2022/01/27 01:16:56;;;;;;;3.70;1.70;;;;;;;;;;6261605;28;20197;-80
2022/01/27 01:20:41;;;;;;;2.90;1.40;;;;;;;;;;6244266;28;20230;-79
2022/01/27 01:30:59;;;;;;;5.70;1.43;;;;;;;;;;6276441;28;20218;-79
2022/01/27 01:34:18;;;;;;;1.57;1.47;;;;;;;;;;6260679;28;20239;-79
2022/01/27 01:37:31;;;;;;;3.40;1.90;;;;;;;;;;6276122;28;20238;-79
2022/01/27 01:40:49;;;;;;;2.23;1.60;;;;;;;;;;6260383;28;20506;-78
2022/01/27 01:44:07;;;;;;;2.47;1.70;;;;;;;;;;6241101;28;20254;-79
2022/01/27 01:47:20;;;;;;;2.33;1.57;;;;;;;;;;6226869;28;20233;-79
2022/01/27 01:50:30;;;;;;;2.53;1.40;;;;;;;;;;6234901;28;20515;-78
2022/01/27 01:53:38;;;;;;;5.43;1.60;;;;;;;;;;6243291;28;20235;-79
2022/01/27 01:56:50;;;;;;;7.17;1.93;;;;;;;;;;6258905;28;20527;-79
2022/01/27 02:00:11;;;;;;;4.10;1.30;;;;;;;;;;6277359;28;20213;-78
2022/01/27 02:03:24;;;;;;;6.80;1.67;;;;;;;;;;6216256;28;20260;-79
2022/01/27 02:06:47;;;;;;;5.87;1.73;;;;;;;;;;6256367;28;20227;-78
2022/01/27 02:10:08;;;;;;;3.73;1.60;;;;;;;;;;6275174;28;20208;-79
2022/01/27 02:20:24;;;;;;;6.63;1.73;;;;;;;;;;6257524;28;20185;-79
2022/01/27 02:23:35;;;;;;;5.73;1.63;;;;;;;;;;6232993;28;20228;-79
2022/01/27 02:26:49;;;;;;;4.57;1.90;;;;;;;;;;6248326;28;20231;-80
2022/01/27 02:29:55;;;;;;;2.90;1.70;;;;;;;;;;6249033;28;20215;-79
2022/01/27 02:33:14;;;;;;;10.77;2.07;;;;;;;;;;6240060;28;20238;-79
2022/01/27 02:36:29;;;;;;;14.50;2.00;;;;;;;;;;6223506;28;20205;-79
2022/01/27 02:39:41;;;;;;;3.83;1.70;;;;;;;;;;6208816;28;20220;-79
2022/01/27 02:42:50;;;;;;;2.90;1.70;;;;;;;;;;6231614;28;20243;-79
2022/01/27 02:46:08;;;;;;;5.87;1.90;;;;;;;;;;6252847;28;20271;-79
2022/01/27 02:49:29;;;;;;;5.13;1.87;;;;;;;;;;6269386;28;20227;-79
2022/01/27 02:52:37;;;;;;;3.03;1.43;;;;;;;;;;6265119;28;20525;-79
2022/01/27 02:55:44;;;;;;;6.60;1.87;;;;;;;;;;6257384;28;20219;-78
2022/01/27 02:59:03;;;;;;;7.20;1.73;;;;;;;;;;6255495;28;20242;-79
2022/01/27 03:02:18;;;;;;;9.83;1.93;;;;;;;;;;6240721;28;20243;-79
2022/01/27 03:05:44;;;;;;;5.33;1.60;;;;;;;;;;6274298;28;20272;-78
2022/01/27 03:09:14;;;;;;;5.57;1.50;;;;;;;;;;6269499;28;20237;-77
2022/01/27 03:12:26;;;;;;;6.20;1.40;;;;;;;;;;6239157;28;20237;-78
2022/01/27 03:15:32;;;;;;;10.00;1.90;;;;;;;;;;6247895;28;20242;-78
2022/01/27 03:19:03;;;;;;;7.03;1.90;;;;;;;;;;6259031;28;20232;-78
2022/01/27 03:22:18;;;;;;;4.40;1.40;;;;;;;;;;6241953;28;20235;-78
2022/01/27 03:25:30;;;;;;;7.13;1.67;;;;;;;;;;6241490;28;20203;-78
2022/01/27 03:28:41;;;;;;;12.10;1.97;;;;;;;;;;6273481;28;20295;-79
2022/01/27 03:31:51;;;;;;;4.43;1.80;;;;;;;;;;6238233;28;20239;-78
2022/01/27 03:35:05;;;;;;;8.00;1.90;;;;;;;;;;6274713;28;20288;-78
2022/01/27 03:38:13;;;;;;;5.23;1.63;;;;;;;;;;6256771;28;20240;-78
2022/01/27 03:41:36;;;;;;;16.47;2.07;;;;;;;;;;6247951;28;20229;-79
2022/01/27 03:44:52;;;;;;;10.93;2.17;;;;;;;;;;6260632;28;20262;-79
2022/01/27 03:48:01;;;;;;;5.83;1.73;;;;;;;;;;6257048;28;20232;-80
2022/01/27 03:51:13;;;;;;;5.00;2.00;;;;;;;;;;6256905;28;20206;-78
2022/01/27 03:54:32;;;;;;;7.90;1.80;;;;;;;;;;6273846;28;20233;-79
2022/01/27 03:57:44;;;;;;;7.60;2.07;;;;;;;;;;6239314;28;20239;-79
2022/01/27 04:00:53;;;;;;;12.57;2.17;;;;;;;;;;6256251;28;20213;-78
2022/01/27 04:04:15;;;;;;;8.73;2.13;;;;;;;;;;6208964;28;20254;-79
2022/01/27 04:07:28;;;;;;;6.37;2.20;;;;;;;;;;6239036;28;20302;-79
2022/01/27 04:10:39;;;;;;;10.10;2.20;;;;;;;;;;6250193;28;20208;-78
2022/01/27 04:13:59;;;;;;;8.97;2.03;;;;;;;;;;6273802;28;20282;-79
2022/01/27 04:20:35;;;;;;;11.83;2.73;;;;;;;;;;6280048;28;20188;-78
2022/01/27 04:23:57;;;;;;;15.60;2.60;;;;;;;;;;6236000;28;20234;-79
2022/01/27 04:27:18;;;;;;;15.60;2.47;;;;;;;;;;6241797;28;20235;-78
2022/01/27 04:30:29;;;;;;;8.53;2.67;;;;;;;;;;6259631;28;20215;-79
2022/01/27 04:33:39;;;;;;;7.07;2.30;;;;;;;;;;6267267;28;20236;-79
2022/01/27 04:36:50;;;;;;;11.67;2.20;;;;;;;;;;6302089;28;20202;-79
2022/01/27 04:40:06;;;;;;;6.47;2.10;;;;;;;;;;6286395;28;20203;-78
2022/01/27 04:43:30;;;;;;;10.37;2.80;;;;;;;;;;6267450;28;20241;-79
2022/01/27 04:46:58;;;;;;;10.23;2.33;;;;;;;;;;6259833;28;20236;-79
2022/01/27 04:50:05;;;;;;;8.00;2.40;;;;;;;;;;6244990;28;20197;-78
2022/01/27 04:53:26;;;;;;;6.33;1.87;;;;;;;;;;6277694;28;20242;-79
2022/01/27 04:57:09;;;;;;;8.40;2.57;;;;;;;;;;6275744;28;20239;-79
2022/01/27 05:00:20;;;;;;;15.60;2.20;;;;;;;;;;6277868;28;20277;-78
2022/01/27 05:03:37;;;;;;;9.67;1.97;;;;;;;;;;6241631;28;20242;-78
2022/01/27 05:06:55;;;;;;;10.43;2.30;;;;;;;;;;6257723;28;20231;-79
2022/01/27 05:13:41;;;;;;;17.03;3.20;;;;;;;;;;6242945;28;20239;-79
2022/01/27 05:16:53;;;;;;;8.83;2.73;;;;;;;;;;6258175;28;20233;-78
2022/01/27 05:20:14;;;;;;;17.27;2.53;;;;;;;;;;6257569;28;20205;-78
2022/01/27 05:23:42;;;;;;;14.03;2.73;;;;;;;;;;6234580;28;20302;-78
2022/01/27 05:26:49;;;;;;;17.20;2.70;;;;;;;;;;6241532;28;20291;-78
2022/01/27 05:29:56;;;;;;;13.77;3.17;;;;;;;;;;6277555;28;20256;-78
2022/01/27 05:33:17;;;;;;;9.47;2.40;;;;;;;;;;6234167;28;20248;-78
2022/01/27 05:36:33;;;;;;;19.57;2.63;;;;;;;;;;6235511;28;20201;-78
2022/01/27 05:39:44;;;;;;;6.23;2.23;;;;;;;;;;6236654;28;20235;-78
2022/01/27 05:42:54;;;;;;;16.37;2.87;;;;;;;;;;6232002;28;20246;-78
2022/01/27 05:46:06;;;;;;;13.73;2.77;;;;;;;;;;6253500;28;20268;-78
2022/01/27 05:49:18;;;;;;;15.67;3.60;;;;;;;;;;6218235;28;20243;-79
2022/01/27 05:52:39;;;;;;;20.37;2.93;;;;;;;;;;6235594;28;20280;-78
2022/01/27 05:56:04;;;;;;;13.53;2.87;;;;;;;;;;6215374;28;20256;-79
2022/01/27 05:59:13;;;;;;;14.40;2.80;;;;;;;;;;6232475;28;20231;-78
2022/01/27 06:02:22;;;;;;;9.97;2.33;;;;;;;;;;6229880;28;20260;-80
2022/01/27 06:05:28;;;;;;;22.80;3.17;;;;;;;;;;6235786;28;20226;-78
2022/01/27 06:08:46;;;;;;;11.87;2.33;;;;;;;;;;6233797;28;20283;-77
2022/01/27 06:11:56;;;;;;;15.73;2.50;;;;;;;;;;6250223;28;20229;-77
2022/01/27 06:15:08;;;;;;;10.17;2.70;;;;;;;;;;6231576;28;20240;-77
2022/01/27 06:18:28;;;;;;;13.17;3.13;;;;;;;;;;6232316;28;20229;-78
2022/01/27 06:21:59;;;;;;;16.43;2.97;;;;;;;;;;6232799;28;20237;-78
2022/01/27 06:25:26;;;;;;;11.80;2.20;;;;;;;;;;6218456;28;20236;-77
2022/01/27 06:28:51;;;;;;;9.13;2.30;;;;;;;;;;6251782;28;20237;-77
2022/01/27 06:32:36;;;;;;;20.20;2.97;;;;;;;;;;6229145;28;20255;-80
2022/01/27 06:35:42;;;;;;;14.37;2.77;;;;;;;;;;6228129;28;20296;-78
2022/01/27 06:38:52;;;;;;;12.90;2.83;;;;;;;;;;6224393;28;20239;-77
2022/01/27 06:41:58;;;;;;;14.57;2.40;;;;;;;;;;6246955;28;20233;-78
2022/01/27 06:45:02;;;;;;;16.50;2.57;;;;;;;;;;6263545;28;20252;-77
2022/01/27 06:48:06;;;;;;;14.50;2.67;;;;;;;;;;6264349;28;20230;-77
2022/01/27 06:51:12;;;;;;;16.33;2.93;;;;;;;;;;6264286;28;20194;-78
2022/01/27 06:54:17;;;;;;;27.93;3.13;;;;;;;;;;6263355;28;20242;-78
2022/01/27 06:57:23;;;;;;;12.33;2.77;;;;;;;;;;6270315;28;20253;-78
2022/01/27 07:00:39;;;;;;;15.37;2.97;;;;;;;;;;6271141;28;20255;-77
2022/01/27 07:03:49;;;;;;;14.27;2.67;;;;;;;;;;6234695;28;20257;-77
2022/01/27 07:06:54;;;;;;;14.47;2.97;;;;;;;;;;6234115;28;20313;-77
2022/01/27 07:10:00;;;;;;;14.03;3.73;;;;;;;;;;6270851;28;20230;-77
2022/01/27 07:13:10;;;;;;;11.87;3.27;;;;;;;;;;6269252;28;20494;-77
2022/01/27 07:16:16;;;;;;;10.50;2.30;;;;;;;;;;6257856;28;20232;-77
2022/01/27 07:19:22;;;;;;;6.70;2.40;;;;;;;;;;6270120;28;20238;-77
2022/01/27 07:22:33;;;;;;;12.57;2.73;;;;;;;;;;6252599;28;20231;-78
2022/01/27 07:25:40;;;;;;;11.67;3.00;;;;;;;;;;6251346;28;20503;-77
2022/01/27 07:28:48;;;;;;;12.20;2.97;;;;;;;;;;6270497;28;20185;-78
2022/01/27 07:31:52;;;;;;;17.57;2.33;;;;;;;;;;6264328;28;20258;-77
2022/01/27 07:35:05;;;;;;;13.37;2.90;;;;;;;;;;6294788;28;20264;-77
2022/01/27 07:38:16;;;;;;;11.00;2.20;;;;;;;;;;6295428;28;20272;-77
2022/01/27 07:41:21;;;;;;;7.73;2.77;;;;;;;;;;6294613;28;20798;-77
2022/01/27 07:44:35;;;;;;;7.73;2.53;;;;;;;;;;6279838;28;20190;-77
2022/01/27 07:47:40;;;;;;;8.37;2.57;;;;;;;;;;6276237;28;20226;-77
2022/01/27 07:50:46;;;;;;;13.63;2.63;;;;;;;;;;6293857;28;20206;-78
2022/01/27 07:53:51;;;;;;;6.30;1.70;;;;;;;;;;6277700;28;20224;-77
2022/01/27 07:57:09;;;;;;;6.60;1.97;;;;;;;;;;6275458;28;20233;-77
2022/01/27 08:00:15;;;;;;;10.63;2.40;;;;;;;;;;6294472;28;20187;-78
2022/01/27 08:03:21;;;;;;;7.13;2.10;;;;;;;;;;6287133;28;20228;-78
2022/01/27 08:06:26;;;;;;;10.67;2.13;;;;;;;;;;6286250;28;20457;-78
2022/01/27 08:09:30;;;;;;;8.47;2.27;;;;;;;;;;6286685;28;20595;-78
2022/01/27 08:12:40;;;;;;;6.47;2.10;;;;;;;;;;6286261;28;20554;-77
2022/01/27 08:15:46;;;;;;;9.80;2.00;;;;;;;;;;6287956;28;20407;-78
2022/01/27 08:19:10;;;;;;;10.70;2.33;;;;;;;;;;6286217;28;20470;-78
2022/01/27 08:22:15;;;;;;;5.23;1.80;;;;;;;;;;6286255;28;20586;-79
2022/01/27 08:25:20;;;;;;;4.20;2.00;;;;;;;;;;6287511;28;20220;-78
2022/01/27 08:28:29;;;;;;;5.87;1.83;;;;;;;;;;6287107;28;20237;-78
2022/01/27 08:31:43;;;;;;;5.93;1.63;;;;;;;;;;6285746;28;20409;-78
2022/01/27 08:34:47;;;;;;;6.43;1.77;;;;;;;;;;6287586;28;20241;-78
2022/01/27 08:37:52;;;;;;;3.50;1.60;;;;;;;;;;6285813;28;20538;-79
2022/01/27 08:40:59;;;;;;;5.33;1.83;;;;;;;;;;6294940;28;20237;-77
2022/01/27 08:44:08;;;;;;;9.90;2.30;;;;;;;;;;6296335;28;20253;-77
2022/01/27 08:47:18;;;;;;;2.20;1.90;;;;;;;;;;6295219;28;20233;-77
2022/01/27 08:50:36;;;;;;;11.27;2.13;;;;;;;;;;6284424;28;20512;-78
2022/01/27 08:53:43;;;;;;;2.43;2.20;;;;;;;;;;6278328;28;20194;-77
2022/01/27 08:56:49;;;;;;;4.57;2.53;;;;;;;;;;6276343;28;20238;-77
2022/01/27 08:59:54;;;;;;;2.47;2.23;;;;;;;;;;6297727;28;20266;-77
2022/01/27 09:02:59;;;;;;;6.27;2.13;;;;;;;;;;6282088;28;20241;-77
2022/01/27 09:06:07;;;;;;;5.37;2.10;;;;;;;;;;6299292;28;20235;-77
2022/01/27 09:09:19;;;;;;;3.13;2.10;;;;;;;;;;6281661;28;20226;-77
2022/01/27 09:12:23;;;;;;;6.97;2.60;;;;;;;;;;6293987;28;20237;-78
2022/01/27 09:15:29;;;;;;;2.67;2.23;;;;;;;;;;6293479;28;20262;-78
2022/01/27 09:18:42;;;;;;;2.73;2.10;;;;;;;;;;6301172;28;20217;-77
2022/01/27 09:22:13;;;;;;;6.57;2.27;;;;;;;;;;6260652;28;20236;-78
2022/01/27 09:25:24;;;;;;;7.43;2.40;;;;;;;;;;6300127;28;20196;-78
2022/01/27 09:28:31;;;;;;;6.33;2.10;;;;;;;;;;6282283;28;20269;-77
2022/01/27 09:31:37;;;;;;;9.37;2.30;;;;;;;;;;6297383;28;20288;-77
2022/01/27 09:35:00;;;;;;;6.10;2.23;;;;;;;;;;6284475;28;20219;-77
2022/01/27 09:38:08;;;;;;;3.60;2.10;;;;;;;;;;6298192;28;20242;-78
2022/01/27 09:41:19;;;;;;;2.73;1.80;;;;;;;;;;6281164;28;20302;-77
2022/01/27 09:44:28;;;;;;;7.63;2.20;;;;;;;;;;6246474;28;20250;-78
2022/01/27 09:47:35;;;;;;;5.60;1.87;;;;;;;;;;6255230;28;20295;-78
2022/01/27 09:51:23;;;;;;;2.87;1.67;;;;;;;;;;6273391;28;20232;-78
2022/01/27 09:54:28;;;;;;;7.23;2.23;;;;;;;;;;6273396;28;20286;-78
2022/01/27 09:57:33;;;;;;;3.73;1.43;;;;;;;;;;6272741;28;20425;-77
2022/01/27 10:00:37;;;;;;;2.43;1.60;;;;;;;;;;6264117;28;20265;-78
2022/01/27 10:03:53;;;;;;;7.93;2.00;;;;;;;;;;6272961;28;20188;-77
2022/01/27 10:07:03;;;;;;;4.17;1.60;;;;;;;;;;6272252;28;20246;-78
2022/01/27 10:10:14;;;;;;;3.50;1.50;;;;;;;;;;6271836;28;20234;-78
2022/01/27 10:13:32;;;;;;;2.97;1.67;;;;;;;;;;6271232;28;20258;-77
2022/01/27 10:16:42;;;;;;;1.87;1.43;;;;;;;;;;6257128;28;20258;-78
2022/01/27 10:19:53;;;;;;;3.70;1.50;;;;;;;;;;6274304;28;20204;-77
2022/01/27 10:23:14;;;;;;;4.93;1.20;;;;;;;;;;6273290;28;20255;-78
2022/01/27 10:26:24;;;;;;;4.07;1.40;;;;;;;;;;6255277;28;20240;-78
2022/01/27 10:29:48;;;;;;;5.57;1.50;;;;;;;;;;6270970;28;20187;-77
2022/01/27 10:32:54;;;;;;;3.80;1.60;;;;;;;;;;6267315;28;20245;-78
2022/01/27 10:36:17;;;;;;;6.83;1.60;;;;;;;;;;6262586;28;20234;-78
2022/01/27 10:39:24;;;;;;;4.80;1.33;;;;;;;;;;6271553;28;20212;-77
2022/01/27 10:42:28;;;;;;;4.10;1.30;;;;;;;;;;6254013;28;20247;-77
2022/01/27 10:45:36;;;;;;;2.20;1.33;;;;;;;;;;6271545;28;20272;-78
2022/01/27 10:48:46;;;;;;;1.80;1.20;;;;;;;;;;6266018;28;20386;-78
2022/01/27 10:51:54;;;;;;;1.50;1.40;;;;;;;;;;6236874;28;20243;-79
2022/01/27 10:55:05;;;;;;;2.30;1.50;;;;;;;;;;6268976;28;20188;-78
2022/01/27 10:58:28;;;;;;;1.53;1.40;;;;;;;;;;6267183;28;20243;-80
2022/01/27 11:01:34;;;;;;;1.20;1.20;;;;;;;;;;6263354;28;20232;-80
2022/01/27 11:04:40;;;;;;;1.70;1.40;;;;;;;;;;6264324;28;20188;-80
2022/01/27 11:07:45;;;;;;;2.23;1.47;;;;;;;;;;6268672;28;20550;-78
2022/01/27 11:10:53;;;;;;;2.53;1.20;;;;;;;;;;6255075;28;20200;-78
2022/01/27 11:13:59;;;;;;;1.40;1.40;;;;;;;;;;6253285;28;20246;-78
2022/01/27 11:17:08;;;;;;;1.40;1.40;;;;;;;;;;6253248;28;20274;-78
2022/01/27 11:20:31;;;;;;;1.43;1.33;;;;;;;;;;6251993;28;20236;-78
2022/01/27 11:24:03;;;;;;;2.20;1.60;;;;;;;;;;6264154;28;20210;-78
2022/01/27 11:27:10;;;;;;;3.60;1.30;;;;;;;;;;6265516;28;20235;-77
2022/01/27 11:30:24;;;;;;;1.33;1.30;;;;;;;;;;6268000;28;20645;-77
2022/01/27 11:33:33;;;;;;;3.43;1.33;;;;;;;;;;6267279;28;20514;-77
2022/01/27 11:37:00;;;;;;;2.57;1.63;;;;;;;;;;6266342;28;20314;-77
2022/01/27 11:40:11;;;;;;;2.67;1.07;;;;;;;;;;6252463;28;20204;-79
2022/01/27 11:43:36;;;;;;;1.30;1.30;;;;;;;;;;6266266;28;20534;-77
2022/01/27 11:46:40;;;;;;;4.10;1.27;;;;;;;;;;6266724;28;20243;-76
2022/01/27 11:49:55;;;;;;;1.20;1.00;;;;;;;;;;6267127;28;20192;-77
2022/01/27 11:53:01;;;;;;;1.13;1.13;;;;;;;;;;6263757;28;20245;-77
2022/01/27 11:56:08;;;;;;;1.60;1.50;;;;;;;;;;6267827;28;20239;-77
2022/01/27 11:59:15;;;;;;;1.70;1.60;;;;;;;;;;6271121;28;20193;-76
2022/01/27 12:02:21;;;;;;;1.50;1.40;;;;;;;;;;6250335;28;20238;-77
2022/01/27 12:05:26;;;;;;;1.30;1.30;;;;;;;;;;6268154;28;20244;-78
2022/01/27 12:08:30;;;;;;;1.13;1.13;;;;;;;;;;6263536;28;20244;-79
2022/01/27 12:11:56;;;;;;;1.47;1.47;;;;;;;;;;6263891;28;20237;-77
2022/01/27 12:15:10;;;;;;;1.33;1.30;;;;;;;;;;6264824;28;20219;-78
2022/01/27 12:18:35;;;;;;;1.23;1.23;;;;;;;;;;6264433;28;20259;-79
2022/01/27 12:21:41;;;;;;;1.20;1.20;;;;;;;;;;6263362;28;20252;-78
2022/01/27 12:24:53;;;;;;;1.20;1.20;;;;;;;;;;6263724;28;20400;-77
2022/01/27 12:27:58;;;;;;;3.50;1.30;;;;;;;;;;6246049;28;20237;-77
2022/01/27 12:31:06;;;;;;;1.23;1.23;;;;;;;;;;6253023;28;20230;-77
2022/01/27 12:34:14;;;;;;;1.60;1.50;;;;;;;;;;6290162;28;20450;-76
2022/01/27 12:37:21;;;;;;;1.70;1.60;;;;;;;;;;6274245;28;20516;-77
2022/01/27 12:40:32;;;;;;;1.20;1.20;;;;;;;;;;6293743;28;20231;-77
2022/01/27 12:43:37;;;;;;;1.50;1.30;;;;;;;;;;6298786;28;20238;-76
2022/01/27 12:47:07;;;;;;;1.40;1.30;;;;;;;;;;6300501;28;20253;-77
2022/01/27 12:50:20;;;;;;;2.30;1.37;;;;;;;;;;6299967;28;20212;-76
2022/01/27 12:53:30;;;;;;;1.53;1.47;;;;;;;;;;6296409;28;20235;-77
2022/01/27 12:56:36;;;;;;;4.13;1.60;;;;;;;;;;6278960;28;20286;-77
2022/01/27 12:59:42;;;;;;;2.57;1.30;;;;;;;;;;6281974;28;20244;-77
2022/01/27 13:02:54;;;;;;;1.90;1.33;;;;;;;;;;6279392;28;20231;-77
2022/01/27 13:06:04;;;;;;;1.57;1.57;;;;;;;;;;6297046;28;20244;-77
2022/01/27 13:09:11;;;;;;;1.90;1.40;;;;;;;;;;6282992;28;20289;-76
2022/01/27 13:12:20;;;;;;;1.53;1.43;;;;;;;;;;6299356;28;20231;-77
2022/01/27 13:15:28;;;;;;;1.40;1.40;;;;;;;;;;6283918;28;20201;-76
2022/01/27 13:18:44;;;;;;;7.37;1.73;;;;;;;;;;6264377;28;20235;-77
2022/01/27 13:21:59;;;;;;;1.53;1.53;;;;;;;;;;6281581;28;20261;-77
2022/01/27 13:25:20;;;;;;;1.60;1.60;;;;;;;;;;6282275;28;20203;-77
2022/01/27 13:28:27;;;;;;;1.40;1.40;;;;;;;;;;6257039;28;20281;-76
2022/01/27 13:31:33;;;;;;;2.40;1.50;;;;;;;;;;6298147;28;20550;-77
2022/01/27 13:34:44;;;;;;;1.53;1.33;;;;;;;;;;6286830;28;20194;-78
2022/01/27 13:37:48;;;;;;;1.33;1.30;;;;;;;;;;6292415;28;20345;-78
2022/01/27 13:44:23;;;;;;;1.90;1.50;;;;;;;;;;6295189;28;20407;-77
2022/01/27 13:47:29;;;;;;;2.10;1.60;;;;;;;;;;6296400;28;20238;-77
2022/01/27 13:50:35;;;;;;;1.90;1.50;;;;;;;;;;6296385;28;20195;-77
2022/01/27 13:53:57;;;;;;;1.93;1.63;;;;;;;;;;6297229;28;20240;-78
2022/01/27 13:57:05;;;;;;;2.70;2.00;;;;;;;;;;6296428;28;20263;-77
2022/01/27 14:00:14;;;;;;;2.03;1.83;;;;;;;;;;6297167;28;20206;-77
2022/01/27 14:03:18;;;;;;;3.47;2.00;;;;;;;;;;6294732;28;20240;-77
2022/01/27 14:06:24;;;;;;;3.50;1.83;;;;;;;;;;6292729;28;20303;-77
2022/01/27 14:09:29;;;;;;;6.70;2.10;;;;;;;;;;6292444;28;20392;-77
2022/01/27 14:12:45;;;;;;;6.03;2.20;;;;;;;;;;6294020;28;20233;-77
2022/01/27 14:15:52;;;;;;;2.87;2.13;;;;;;;;;;6294474;28;20186;-77
2022/01/27 14:18:56;;;;;;;1.80;1.70;;;;;;;;;;6295885;28;20225;-77
2022/01/27 14:22:02;;;;;;;4.40;1.97;;;;;;;;;;6293708;28;20239;-79
2022/01/27 14:25:36;;;;;;;1.77;1.67;;;;;;;;;;6293731;28;20192;-78
2022/01/27 14:28:41;;;;;;;2.20;2.00;;;;;;;;;;6260952;28;20521;-77
2022/01/27 14:31:47;;;;;;;1.97;1.93;;;;;;;;;;6294845;28;20280;-78
2022/01/27 14:34:52;;;;;;;3.40;2.07;;;;;;;;;;6293794;28;20186;-78
2022/01/27 14:37:58;;;;;;;2.53;2.10;;;;;;;;;;6293481;28;20242;-78
2022/01/27 14:41:02;;;;;;;2.17;2.07;;;;;;;;;;6293097;28;20528;-78
2022/01/27 14:44:07;;;;;;;3.30;2.37;;;;;;;;;;6269473;28;20187;-78
2022/01/27 14:47:12;;;;;;;2.43;2.00;;;;;;;;;;6269332;28;20238;-78
2022/01/27 14:50:17;;;;;;;1.70;1.60;;;;;;;;;;6269429;28;20269;-78
2022/01/27 14:53:22;;;;;;;4.40;2.17;;;;;;;;;;6268218;28;20586;-78
2022/01/27 14:56:26;;;;;;;2.93;2.20;;;;;;;;;;6269204;28;20284;-78
2022/01/27 14:59:31;;;;;;;6.40;2.07;;;;;;;;;;6269044;28;20215;-78
2022/01/27 15:02:36;;;;;;;1.93;1.87;;;;;;;;;;6243769;28;20240;-78
2022/01/27 15:05:41;;;;;;;6.40;2.23;;;;;;;;;;6243492;28;20220;-78
2022/01/27 15:08:46;;;;;;;3.47;1.97;;;;;;;;;;6268247;28;20274;-77
2022/01/27 15:11:50;;;;;;;3.33;2.40;;;;;;;;;;6258227;28;20232;-78
2022/01/27 15:21:42;;;;;;;4.57;2.40;;;;;;;;;;6253720;28;20274;-78
2022/01/27 15:24:47;;;;;;;5.10;2.73;;;;;;;;;;6269603;28;20266;-78
2022/01/27 15:27:51;;;;;;;2.83;2.63;;;;;;;;;;6269742;28;20253;-78
2022/01/27 15:30:57;;;;;;;3.83;2.17;;;;;;;;;;6249600;28;20231;-78
2022/01/27 15:34:01;;;;;;;6.27;2.50;;;;;;;;;;6268424;28;20268;-78
2022/01/27 15:37:06;;;;;;;4.13;3.50;;;;;;;;;;6268049;28;20291;-78
2022/01/27 15:40:14;;;;;;;4.70;3.73;;;;;;;;;;6266911;28;20276;-78
2022/01/27 15:43:28;;;;;;;4.37;3.97;;;;;;;;;;6287489;28;20229;-78
2022/01/27 15:46:32;;;;;;;4.63;4.23;;;;;;;;;;6293641;28;20231;-78
2022/01/27 15:49:36;;;;;;;5.47;4.67;;;;;;;;;;6281485;28;20237;-78
2022/01/27 15:52:41;;;;;;;7.03;4.23;;;;;;;;;;6290164;28;20230;-77
2022/01/27 15:55:47;;;;;;;5.87;4.43;;;;;;;;;;6291113;28;20187;-77
2022/01/27 15:58:51;;;;;;;6.33;4.50;;;;;;;;;;6290541;28;20222;-77
2022/01/27 16:01:56;;;;;;;8.30;4.83;;;;;;;;;;6291793;28;20238;-77
2022/01/27 16:05:00;;;;;;;10.10;4.93;;;;;;;;;;6290802;28;20203;-77
2022/01/27 16:08:07;;;;;;;4.90;4.17;;;;;;;;;;6289560;28;20234;-77
2022/01/27 16:11:13;;;;;;;4.70;3.47;;;;;;;;;;6292949;28;20424;-77
2022/01/27 16:14:18;;;;;;;4.47;3.90;;;;;;;;;;6290720;28;20257;-77
2022/01/27 16:17:23;;;;;;;7.20;4.17;;;;;;;;;;6292775;28;20420;-78
2022/01/27 16:20:27;;;;;;;4.80;4.30;;;;;;;;;;6293079;28;20546;-78
2022/01/27 16:23:31;;;;;;;5.80;4.17;;;;;;;;;;6289078;28;20482;-79
2022/01/27 16:26:37;;;;;;;6.30;3.67;;;;;;;;;;6289761;28;20236;-78
2022/01/27 16:29:41;;;;;;;4.23;3.10;;;;;;;;;;6290273;28;20191;-78
2022/01/27 16:32:46;;;;;;;3.40;3.20;;;;;;;;;;6286760;28;20235;-78
2022/01/27 16:35:50;;;;;;;3.20;3.00;;;;;;;;;;6289441;28;20262;-78
2022/01/27 16:38:54;;;;;;;2.27;2.17;;;;;;;;;;6290473;28;20209;-78
2022/01/27 16:42:00;;;;;;;2.70;2.60;;;;;;;;;;6289132;28;20235;-78
2022/01/27 16:45:05;;;;;;;2.37;2.30;;;;;;;;;;6290155;28;20222;-78
2022/01/27 16:48:12;;;;;;;2.17;2.10;;;;;;;;;;6287776;28;20258;-79
2022/01/27 16:51:16;;;;;;;2.10;2.00;;;;;;;;;;6289860;28;20554;-79
2022/01/27 16:54:23;;;;;;;2.30;2.20;;;;;;;;;;6291442;28;20256;-78
2022/01/27 16:57:28;;;;;;;2.20;2.10;;;;;;;;;;6289745;28;20300;-78
2022/01/27 17:00:33;;;;;;;2.40;2.30;;;;;;;;;;6290371;28;20243;-78
2022/01/27 17:03:37;;;;;;;4.00;2.13;;;;;;;;;;6287786;28;20214;-78
2022/01/27 17:06:42;;;;;;;2.07;2.00;;;;;;;;;;6287041;28;20523;-78
2022/01/27 17:09:45;;;;;;;1.53;1.53;;;;;;;;;;6288910;28;20280;-78
2022/01/27 17:12:51;;;;;;;1.80;1.77;;;;;;;;;;6287779;28;20231;-78
2022/01/27 17:15:55;;;;;;;2.00;1.90;;;;;;;;;;6287262;28;20244;-78
2022/01/27 17:19:03;;;;;;;1.60;1.60;;;;;;;;;;6290016;28;20495;-78
2022/01/27 17:22:12;;;;;;;1.70;1.70;;;;;;;;;;6293276;28;20233;-78
2022/01/27 17:25:23;;;;;;;2.30;2.20;;;;;;;;;;6293113;28;20188;-78
2022/01/27 17:28:29;;;;;;;1.90;1.90;;;;;;;;;;6297907;28;20260;-77
2022/01/27 17:31:40;;;;;;;1.70;1.70;;;;;;;;;;6274310;28;20247;-77
2022/01/27 17:34:46;;;;;;;1.90;1.90;;;;;;;;;;6280299;28;20314;-78
2022/01/27 17:37:50;;;;;;;2.20;2.10;;;;;;;;;;6294486;28;20253;-78
2022/01/27 17:40:56;;;;;;;2.10;2.00;;;;;;;;;;6294396;28;20775;-78
2022/01/27 17:44:11;;;;;;;1.97;1.97;;;;;;;;;;6292172;28;20479;-78
2022/01/27 17:47:16;;;;;;;1.93;1.93;;;;;;;;;;6291772;28;20241;-77
2022/01/27 17:50:21;;;;;;;2.13;2.00;;;;;;;;;;6294013;28;20273;-77
2022/01/27 17:53:26;;;;;;;2.63;2.43;;;;;;;;;;6297040;28;20234;-79
2022/01/27 17:56:30;;;;;;;2.30;2.20;;;;;;;;;;6294633;28;20238;-78
2022/01/27 17:59:36;;;;;;;2.23;2.13;;;;;;;;;;6292457;28;20239;-78
2022/01/27 18:02:41;;;;;;;2.63;2.43;;;;;;;;;;6292339;28;20342;-78
2022/01/27 18:05:46;;;;;;;2.30;2.20;;;;;;;;;;6291533;28;20254;-76
2022/01/27 18:08:50;;;;;;;4.20;3.90;;;;;;;;;;6291715;28;20186;-77
2022/01/27 18:11:54;;;;;;;5.70;5.17;;;;;;;;;;6292293;28;20289;-78
2022/01/27 18:15:00;;;;;;;3.03;2.93;;;;;;;;;;6294435;28;20185;-79
2022/01/27 18:18:04;;;;;;;2.23;2.23;;;;;;;;;;6273224;28;20294;-78
2022/01/27 18:21:10;;;;;;;2.40;2.40;;;;;;;;;;6289477;28;20442;-78
2022/01/27 18:24:14;;;;;;;2.63;2.63;;;;;;;;;;6289778;28;20473;-78
2022/01/27 18:27:18;;;;;;;4.53;1.80;;;;;;;;;;6289080;28;20290;-78
2022/01/27 18:30:24;;;;;;;1.90;1.90;;;;;;;;;;6288431;28;20188;-78
2022/01/27 18:33:30;;;;;;;2.70;2.50;;;;;;;;;;6288907;28;20239;-78
2022/01/27 18:36:34;;;;;;;2.20;2.10;;;;;;;;;;6288160;28;20463;-77
2022/01/27 18:39:38;;;;;;;2.00;2.00;;;;;;;;;;6284207;28;20250;-77
2022/01/27 18:42:43;;;;;;;1.63;1.53;;;;;;;;;;6290990;28;20240;-77
2022/01/27 18:45:48;;;;;;;2.17;2.07;;;;;;;;;;6292124;28;20184;-77
2022/01/27 18:48:55;;;;;;;2.10;1.90;;;;;;;;;;6273946;28;20362;-77
2022/01/27 18:51:59;;;;;;;2.33;1.60;;;;;;;;;;6290935;28;20258;-77
2022/01/27 18:55:04;;;;;;;1.60;1.60;;;;;;;;;;6291086;28;20574;-76
2022/01/27 18:58:11;;;;;;;1.40;1.40;;;;;;;;;;6290965;28;20235;-77
2022/01/27 19:01:17;;;;;;;1.20;1.20;;;;;;;;;;6291830;28;20231;-78
2022/01/27 19:04:21;;;;;;;1.27;1.27;;;;;;;;;;6292768;28;20223;-77
2022/01/27 19:07:25;;;;;;;1.03;1.03;;;;;;;;;;6291639;28;20257;-77
2022/01/27 19:10:29;;;;;;;1.30;1.30;;;;;;;;;;6291400;28;20284;-76
2022/01/27 19:13:34;;;;;;;1.30;1.30;;;;;;;;;;6290327;28;20275;-77
2022/01/27 19:16:39;;;;;;;1.20;1.20;;;;;;;;;;6272907;28;20291;-78
2022/01/27 19:19:45;;;;;;;1.40;1.40;;;;;;;;;;6273047;28;20282;-77
2022/01/27 19:22:49;;;;;;;1.40;1.40;;;;;;;;;;6289961;28;20242;-77
2022/01/27 19:25:56;;;;;;;1.43;1.43;;;;;;;;;;6289161;28;20219;-78
2022/01/27 19:29:01;;;;;;;1.43;1.43;;;;;;;;;;6289810;28;20184;-77
2022/01/27 19:32:09;;;;;;;2.20;1.87;;;;;;;;;;6288713;28;20468;-77
2022/01/27 19:35:15;;;;;;;2.20;1.80;;;;;;;;;;6290061;28;20190;-78
2022/01/27 19:38:20;;;;;;;1.50;1.40;;;;;;;;;;6290185;28;20296;-78
2022/01/27 19:41:25;;;;;;;1.40;1.40;;;;;;;;;;6287997;28;20249;-78